Time;durP1;ratioP1;P1;durP2;ratioP2;P2;SDS_P1;SDS_P2;PMS_P1;PMS_P2;Temp;Humidity;BMP_temperature;BMP_pressure;BME280_temperature;BME280_humidity;BME280_pressure;Samples;Min_cycle;Max_cycle;Signal;HPM_P1;HPM_P2
2022/11/03 00:00:03;;;;;;;;;;;11.70;91.50;;;;;;4986726;28;20008;-67
2022/11/03 00:02:28;;;;;;;;;;;11.80;91.50;;;;;;4986750;28;20377;-68
2022/11/03 00:04:54;;;;;;;;;;;11.70;91.50;;;;;;4986585;28;19914;-67
2022/11/03 00:07:22;;;;;;;;;;;11.70;91.40;;;;;;4966648;28;19917;-67
2022/11/03 00:09:48;;;;;;;;;;;11.70;91.40;;;;;;4966811;28;19922;-67
2022/11/03 00:12:14;;;;;;;;;;;11.70;91.40;;;;;;4966972;28;19918;-70
2022/11/03 00:14:39;;;;;;;;;;;11.80;91.40;;;;;;4966463;28;20060;-68
2022/11/03 00:17:05;;;;;;;;;;;11.70;91.50;;;;;;4967529;28;20573;-67
2022/11/03 00:19:30;;;;;;;;;;;11.70;91.40;;;;;;4967138;28;19968;-67
2022/11/03 00:21:59;;;;;;;;;;;11.70;91.50;;;;;;4979279;28;19922;-67
2022/11/03 00:24:24;;;;;;;;;;;11.70;91.40;;;;;;4985237;28;20256;-67
2022/11/03 00:26:50;;;;;;;;;;;11.70;91.50;;;;;;4986472;28;19936;-68
2022/11/03 00:29:15;;;;;;;;;;;11.70;91.50;;;;;;4986208;28;19924;-67
2022/11/03 00:31:42;;;;;;;;;;;11.70;91.50;;;;;;4986132;28;19960;-67
2022/11/03 00:34:08;;;;;;;;;;;11.70;91.50;;;;;;4986580;28;19921;-67
2022/11/03 00:36:34;;;;;;;;;;;11.70;91.50;;;;;;4986547;28;19913;-67
2022/11/03 00:39:00;;;;;;;;;;;11.70;91.50;;;;;;4985928;28;20338;-67
2022/11/03 00:41:25;;;;;;;;;;;11.70;91.50;;;;;;4986182;28;19953;-67
2022/11/03 00:43:51;;;;;;;;;;;11.70;91.50;;;;;;4986022;28;19909;-67
2022/11/03 00:46:17;;;;;;;;;;;11.70;91.50;;;;;;4986144;28;19913;-67
2022/11/03 00:48:43;;;;;;;;;;;11.70;91.40;;;;;;4985966;28;19921;-67
2022/11/03 00:51:10;;;;;;;;;;;11.70;91.50;;;;;;4985379;28;20290;-67
2022/11/03 00:53:40;;;;;;;;;;;11.70;91.50;;;;;;4984802;28;20323;-67
2022/11/03 00:56:06;;;;;;;;;;;11.70;91.50;;;;;;4985608;28;19917;-67
2022/11/03 00:58:32;;;;;;;;;;;11.70;91.50;;;;;;4986128;28;19914;-68
2022/11/03 01:00:58;;;;;;;;;;;11.70;91.50;;;;;;4985589;28;19921;-68
2022/11/03 01:03:24;;;;;;;;;;;11.70;91.50;;;;;;4986266;28;19913;-67
2022/11/03 01:08:34;;;;;;;;;;;11.70;91.50;;;;;;4986000;28;20302;-67
2022/11/03 01:13:47;;;;;;;;;;;11.70;91.50;;;;;;4985261;28;19929;-68
2022/11/03 01:16:13;;;;;;;;;;;11.70;91.50;;;;;;4986094;28;19914;-68
2022/11/03 01:18:38;;;;;;;;;;;11.70;91.50;;;;;;4985854;28;19945;-68
2022/11/03 01:21:04;;;;;;;;;;;11.70;91.50;;;;;;4985761;28;19914;-68
2022/11/03 01:23:29;;;;;;;;;;;11.80;91.50;;;;;;4985800;28;19996;-67
2022/11/03 01:25:55;;;;;;;;;;;11.70;91.50;;;;;;4985688;28;19943;-67
2022/11/03 01:28:20;;;;;;;;;;;11.70;91.50;;;;;;4984636;28;19918;-67
2022/11/03 01:30:46;;;;;;;;;;;11.70;91.50;;;;;;4985022;28;19922;-68
2022/11/03 01:33:11;;;;;;;;;;;11.70;91.50;;;;;;4984280;28;19917;-68
2022/11/03 01:35:37;;;;;;;;;;;11.80;91.60;;;;;;4985315;28;19921;-68
2022/11/03 01:38:02;;;;;;;;;;;11.70;91.50;;;;;;4988289;28;19920;-68
2022/11/03 01:40:28;;;;;;;;;;;11.70;91.60;;;;;;4989107;28;19921;-68
2022/11/03 01:42:53;;;;;;;;;;;11.70;91.60;;;;;;4989492;28;20557;-67
2022/11/03 01:45:19;;;;;;;;;;;11.70;91.50;;;;;;4988664;28;19976;-67
2022/11/03 01:47:45;;;;;;;;;;;11.70;91.60;;;;;;4973811;28;19914;-67
2022/11/03 01:50:13;;;;;;;;;;;11.70;91.50;;;;;;4976132;28;19914;-67
2022/11/03 01:52:48;;;;;;;;;;;11.70;91.60;;;;;;4988154;28;20346;-68
2022/11/03 01:55:18;;;;;;;;;;;11.70;91.60;;;;;;4988582;28;19985;-68
2022/11/03 01:58:07;;;;;;;;;;;11.80;91.60;;;;;;4988059;28;19918;-68
2022/11/03 02:00:33;;;;;;;;;;;11.70;91.60;;;;;;4981258;28;19921;-67
2022/11/03 02:02:59;;;;;;;;;;;11.70;91.90;;;;;;4988902;28;19913;-68
2022/11/03 02:05:25;;;;;;;;;;;11.70;91.50;;;;;;4989071;28;19914;-67
2022/11/03 02:07:51;;;;;;;;;;;11.70;91.50;;;;;;4988935;28;19914;-68
2022/11/03 02:10:16;;;;;;;;;;;11.70;91.60;;;;;;4988480;28;19922;-68
2022/11/03 02:12:42;;;;;;;;;;;11.70;91.60;;;;;;4989043;28;19917;-68
2022/11/03 02:15:09;;;;;;;;;;;11.70;91.60;;;;;;4988166;28;19922;-68
2022/11/03 02:17:35;;;;;;;;;;;11.70;91.70;;;;;;4988630;28;19920;-67
2022/11/03 02:20:21;;;;;;;;;;;11.70;91.60;;;;;;4988795;28;19913;-67
2022/11/03 02:22:52;;;;;;;;;;;11.70;91.70;;;;;;4989116;28;19918;-68
2022/11/03 02:25:27;;;;;;;;;;;11.70;91.70;;;;;;4988838;28;19964;-68
2022/11/03 02:27:52;;;;;;;;;;;11.70;91.60;;;;;;4988610;28;19985;-68
2022/11/03 02:30:18;;;;;;;;;;;11.70;91.70;;;;;;4988469;28;19961;-68
2022/11/03 02:32:43;;;;;;;;;;;11.70;91.70;;;;;;4987993;28;19930;-67
2022/11/03 02:35:12;;;;;;;;;;;11.70;91.70;;;;;;4988018;28;19913;-68
2022/11/03 02:37:41;;;;;;;;;;;11.70;91.70;;;;;;4988507;28;19914;-68
2022/11/03 02:40:12;;;;;;;;;;;11.70;91.70;;;;;;4988300;28;20019;-68
2022/11/03 02:42:39;;;;;;;;;;;11.70;91.70;;;;;;4987349;28;20032;-68
2022/11/03 02:45:06;;;;;;;;;;;11.70;91.70;;;;;;4988203;28;19914;-68
2022/11/03 02:47:33;;;;;;;;;;;11.70;91.70;;;;;;4987504;28;20037;-68
2022/11/03 02:49:59;;;;;;;;;;;11.70;91.70;;;;;;4987620;28;19917;-68
2022/11/03 02:52:36;;;;;;;;;;;11.70;91.80;;;;;;4988102;28;20361;-67
2022/11/03 02:55:20;;;;;;;;;;;11.70;92.00;;;;;;4988232;28;20351;-68
2022/11/03 02:58:06;;;;;;;;;;;11.70;91.80;;;;;;4988087;28;19972;-67
2022/11/03 03:00:35;;;;;;;;;;;11.70;91.70;;;;;;4977645;28;20616;-70
2022/11/03 03:03:07;;;;;;;;;;;11.70;91.70;;;;;;4987513;28;19972;-68
2022/11/03 03:05:34;;;;;;;;;;;11.70;91.80;;;;;;4994467;28;20084;-67
2022/11/03 03:08:04;;;;;;;;;;;11.70;91.70;;;;;;4998368;28;19913;-68
2022/11/03 03:10:32;;;;;;;;;;;11.70;91.70;;;;;;4997188;28;19992;-68
2022/11/03 03:12:58;;;;;;;;;;;11.70;91.80;;;;;;4998598;28;20572;-68
2022/11/03 03:15:27;;;;;;;;;;;11.70;91.80;;;;;;5005417;28;19913;-68
2022/11/03 03:17:53;;;;;;;;;;;11.70;91.70;;;;;;5006968;28;19957;-68
2022/11/03 03:20:27;;;;;;;;;;;11.60;91.70;;;;;;5006359;28;19917;-68
2022/11/03 03:22:59;;;;;;;;;;;11.70;91.80;;;;;;4967042;28;19918;-69
2022/11/03 03:25:33;;;;;;;;;;;11.70;91.80;;;;;;4967892;28;19948;-68
2022/11/03 03:28:19;;;;;;;;;;;11.70;91.80;;;;;;4968163;28;19914;-68
2022/11/03 03:30:45;;;;;;;;;;;11.70;91.80;;;;;;4978134;28;19957;-67
2022/11/03 03:33:11;;;;;;;;;;;11.70;91.80;;;;;;5001948;28;20013;-68
2022/11/03 03:35:39;;;;;;;;;;;11.70;91.80;;;;;;4987581;28;20009;-68
2022/11/03 03:38:07;;;;;;;;;;;11.70;91.80;;;;;;4986988;28;19980;-67
2022/11/03 03:40:37;;;;;;;;;;;11.70;91.80;;;;;;4987279;28;20565;-68
2022/11/03 03:43:04;;;;;;;;;;;11.70;91.80;;;;;;4987350;28;20302;-67
2022/11/03 03:45:30;;;;;;;;;;;11.70;91.80;;;;;;4987239;28;19936;-68
2022/11/03 03:47:56;;;;;;;;;;;11.70;91.80;;;;;;4987103;28;20527;-67
2022/11/03 03:50:22;;;;;;;;;;;11.70;91.90;;;;;;4986465;28;19914;-68
2022/11/03 03:52:48;;;;;;;;;;;11.70;91.80;;;;;;4986932;28;19987;-67
2022/11/03 03:55:17;;;;;;;;;;;11.60;91.80;;;;;;4984407;28;19918;-68
2022/11/03 03:57:42;;;;;;;;;;;11.60;91.90;;;;;;4986998;28;19920;-68
2022/11/03 04:00:10;;;;;;;;;;;11.60;91.80;;;;;;4985608;28;19914;-67
2022/11/03 04:02:36;;;;;;;;;;;11.60;91.90;;;;;;4986315;28;19914;-67
2022/11/03 04:05:01;;;;;;;;;;;11.70;91.90;;;;;;4985935;28;19913;-67
2022/11/03 04:10:11;;;;;;;;;;;11.70;91.90;;;;;;4986219;28;19952;-68
2022/11/03 04:23:36;;;;;;;;;;;11.70;92.00;;;;;;4986139;28;20009;-68
2022/11/03 04:26:03;;;;;;;;;;;11.70;92.00;;;;;;4985329;28;19946;-68
2022/11/03 04:28:28;;;;;;;;;;;11.60;91.90;;;;;;4985553;28;19918;-68
2022/11/03 04:30:58;;;;;;;;;;;11.60;91.90;;;;;;4986164;28;19922;-67
2022/11/03 04:33:23;;;;;;;;;;;11.60;91.90;;;;;;4985994;28;20666;-68
2022/11/03 04:35:50;;;;;;;;;;;11.60;91.90;;;;;;4986405;28;20012;-68
2022/11/03 04:38:16;;;;;;;;;;;11.70;91.90;;;;;;4986127;28;19917;-67
2022/11/03 04:40:43;;;;;;;;;;;11.70;92.00;;;;;;4985696;28;19992;-68
2022/11/03 04:43:09;;;;;;;;;;;11.60;91.90;;;;;;4986381;28;19933;-68
2022/11/03 04:45:37;;;;;;;;;;;11.70;92.00;;;;;;4985670;28;19922;-67
2022/11/03 04:48:10;;;;;;;;;;;11.60;91.90;;;;;;4985631;28;19987;-68
2022/11/03 04:50:35;;;;;;;;;;;11.60;92.00;;;;;;4985669;28;20084;-67
2022/11/03 04:53:01;;;;;;;;;;;11.60;92.00;;;;;;4985981;28;20536;-68
2022/11/03 04:55:26;;;;;;;;;;;11.70;92.00;;;;;;4986158;28;19920;-68
2022/11/03 04:57:59;;;;;;;;;;;11.70;92.00;;;;;;4985883;28;20620;-67
2022/11/03 05:00:25;;;;;;;;;;;11.70;92.00;;;;;;4985776;28;19923;-68
2022/11/03 05:02:50;;;;;;;;;;;11.70;92.00;;;;;;4985702;28;20271;-67
2022/11/03 05:05:18;;;;;;;;;;;11.70;92.00;;;;;;4985922;28;19922;-68
2022/11/03 05:07:45;;;;;;;;;;;11.60;92.00;;;;;;4985709;28;19918;-67
2022/11/03 05:10:14;;;;;;;;;;;11.70;92.00;;;;;;4985369;28;19928;-68
2022/11/03 05:12:39;;;;;;;;;;;11.70;92.00;;;;;;4985691;28;19917;-68
2022/11/03 05:15:07;;;;;;;;;;;11.70;92.00;;;;;;4985511;28;19914;-68
2022/11/03 05:17:32;;;;;;;;;;;11.60;92.00;;;;;;4985722;28;20371;-68
2022/11/03 05:20:02;;;;;;;;;;;11.60;92.00;;;;;;4985449;28;20003;-67
2022/11/03 05:22:30;;;;;;;;;;;11.60;92.00;;;;;;4985753;28;19933;-68
2022/11/03 05:24:57;;;;;;;;;;;11.70;92.00;;;;;;4984555;28;19921;-68
2022/11/03 05:27:22;;;;;;;;;;;11.60;92.00;;;;;;4985908;28;20274;-68
2022/11/03 05:29:49;;;;;;;;;;;11.60;92.00;;;;;;4985509;28;19910;-68
2022/11/03 05:32:17;;;;;;;;;;;11.70;92.10;;;;;;4985807;28;20036;-68
2022/11/03 05:34:45;;;;;;;;;;;11.60;92.10;;;;;;4985202;28;19997;-68
2022/11/03 05:37:18;;;;;;;;;;;11.70;92.00;;;;;;4986065;28;20616;-67
2022/11/03 05:39:46;;;;;;;;;;;11.70;92.10;;;;;;4985377;28;19984;-67
2022/11/03 05:42:19;;;;;;;;;;;11.60;92.00;;;;;;4985791;28;20551;-67
2022/11/03 05:44:44;;;;;;;;;;;11.70;92.10;;;;;;4985410;28;19920;-68
2022/11/03 05:47:17;;;;;;;;;;;11.70;92.10;;;;;;4985380;28;19917;-68
2022/11/03 05:49:43;;;;;;;;;;;11.70;92.10;;;;;;4985075;28;20379;-67
2022/11/03 05:52:14;;;;;;;;;;;11.60;92.10;;;;;;4985279;28;19929;-68
2022/11/03 05:54:39;;;;;;;;;;;11.70;92.10;;;;;;4984063;28;20371;-68
2022/11/03 05:57:15;;;;;;;;;;;11.60;92.10;;;;;;4966159;28;19925;-67
2022/11/03 05:59:42;;;;;;;;;;;11.70;92.10;;;;;;4978714;28;19914;-68
2022/11/03 06:02:17;;;;;;;;;;;11.70;92.10;;;;;;4985108;28;20429;-67
2022/11/03 06:04:43;;;;;;;;;;;11.70;92.10;;;;;;4985361;28;19921;-68
2022/11/03 06:07:17;;;;;;;;;;;11.70;92.10;;;;;;4985170;28;19914;-67
2022/11/03 06:09:43;;;;;;;;;;;11.70;92.10;;;;;;4984826;28;19922;-68
2022/11/03 06:12:10;;;;;;;;;;;11.70;92.10;;;;;;4985106;28;20724;-68
2022/11/03 06:14:36;;;;;;;;;;;11.70;92.10;;;;;;4985282;28;19918;-67
2022/11/03 06:17:04;;;;;;;;;;;11.70;92.10;;;;;;4985255;28;20422;-68
2022/11/03 06:19:34;;;;;;;;;;;11.70;92.10;;;;;;4985054;28;19914;-68
2022/11/03 06:22:19;;;;;;;;;;;11.70;92.10;;;;;;4983784;28;20599;-67
2022/11/03 06:24:45;;;;;;;;;;;11.70;92.10;;;;;;4987722;28;19925;-67
2022/11/03 06:27:15;;;;;;;;;;;11.70;92.10;;;;;;4986773;28;19914;-67
2022/11/03 06:29:44;;;;;;;;;;;11.70;92.10;;;;;;4987947;28;19998;-68
2022/11/03 06:32:10;;;;;;;;;;;11.70;92.10;;;;;;4987714;28;19924;-68
2022/11/03 06:34:40;;;;;;;;;;;11.70;92.10;;;;;;4988762;28;20068;-67
2022/11/03 06:37:23;;;;;;;;;;;11.70;92.10;;;;;;4988270;28;19914;-67
2022/11/03 06:39:49;;;;;;;;;;;11.70;92.10;;;;;;4988381;28;19914;-67
2022/11/03 06:42:15;;;;;;;;;;;11.70;92.10;;;;;;4988242;28;19956;-67
2022/11/03 06:44:50;;;;;;;;;;;11.70;92.10;;;;;;4988311;28;20082;-67
2022/11/03 06:47:19;;;;;;;;;;;11.70;92.10;;;;;;4988346;28;20593;-67
2022/11/03 06:49:45;;;;;;;;;;;11.70;92.10;;;;;;4987740;28;19940;-67
2022/11/03 06:52:23;;;;;;;;;;;11.70;92.10;;;;;;4988125;28;20622;-67
2022/11/03 06:54:49;;;;;;;;;;;11.70;92.40;;;;;;4988093;28;19959;-68
2022/11/03 06:57:17;;;;;;;;;;;11.70;92.10;;;;;;4987923;28;20638;-67
2022/11/03 06:59:42;;;;;;;;;;;11.70;92.10;;;;;;4987518;28;19918;-67
2022/11/03 07:02:26;;;;;;;;;;;11.70;92.10;;;;;;4987987;28;19922;-67
2022/11/03 07:04:52;;;;;;;;;;;11.70;92.10;;;;;;4988600;28;19914;-67
2022/11/03 07:07:17;;;;;;;;;;;11.70;92.10;;;;;;4988014;28;19917;-67
2022/11/03 07:09:43;;;;;;;;;;;11.70;92.10;;;;;;4987642;28;19964;-67
2022/11/03 07:12:12;;;;;;;;;;;11.70;92.10;;;;;;4987710;28;19917;-67
2022/11/03 07:14:38;;;;;;;;;;;11.70;92.10;;;;;;4987893;28;19940;-67
2022/11/03 07:17:14;;;;;;;;;;;11.70;91.80;;;;;;4987718;28;20335;-67
2022/11/03 07:19:41;;;;;;;;;;;11.70;92.10;;;;;;4987672;28;19914;-67
2022/11/03 07:22:24;;;;;;;;;;;11.70;92.10;;;;;;4988003;28;20057;-67
2022/11/03 07:24:52;;;;;;;;;;;11.80;92.10;;;;;;4988025;28;19921;-67
2022/11/03 07:27:23;;;;;;;;;;;11.70;92.20;;;;;;4987667;28;19964;-67
2022/11/03 07:29:50;;;;;;;;;;;11.80;92.10;;;;;;4987200;28;20903;-67
2022/11/03 07:32:18;;;;;;;;;;;11.80;92.10;;;;;;4987177;28;20366;-67
2022/11/03 07:34:44;;;;;;;;;;;11.80;92.10;;;;;;4987303;28;19918;-67
2022/11/03 07:37:13;;;;;;;;;;;11.80;92.10;;;;;;4987428;28;19914;-67
2022/11/03 07:39:39;;;;;;;;;;;11.80;92.10;;;;;;4987381;28;19914;-67
2022/11/03 07:42:12;;;;;;;;;;;11.80;92.10;;;;;;4987416;28;19968;-67
2022/11/03 07:44:38;;;;;;;;;;;11.80;92.10;;;;;;4987100;28;19924;-67
2022/11/03 07:47:05;;;;;;;;;;;11.80;92.10;;;;;;4985856;28;19921;-67
2022/11/03 07:49:30;;;;;;;;;;;11.90;92.10;;;;;;4982464;28;19941;-67
2022/11/03 07:51:57;;;;;;;;;;;11.90;92.10;;;;;;4987085;28;19961;-67
2022/11/03 07:54:27;;;;;;;;;;;11.90;92.10;;;;;;4987454;28;19949;-67
2022/11/03 07:56:57;;;;;;;;;;;11.90;92.10;;;;;;4987216;28;19914;-67
2022/11/03 07:59:27;;;;;;;;;;;11.90;92.10;;;;;;4986628;28;20617;-67
2022/11/03 08:01:54;;;;;;;;;;;11.90;92.10;;;;;;4987267;28;19913;-67
2022/11/03 08:04:29;;;;;;;;;;;11.90;92.10;;;;;;4987138;28;20551;-67
2022/11/03 08:06:55;;;;;;;;;;;12.00;92.10;;;;;;4986470;28;20341;-67
2022/11/03 08:09:21;;;;;;;;;;;12.00;92.10;;;;;;4986758;28;19918;-67
2022/11/03 08:11:46;;;;;;;;;;;12.00;92.10;;;;;;4969528;28;19924;-67
2022/11/03 08:14:12;;;;;;;;;;;12.00;92.00;;;;;;4985414;28;19922;-67
2022/11/03 08:16:37;;;;;;;;;;;12.10;92.00;;;;;;4985445;28;19933;-67
2022/11/03 08:19:03;;;;;;;;;;;12.10;92.00;;;;;;4987156;28;19917;-67
2022/11/03 08:21:28;;;;;;;;;;;12.10;92.00;;;;;;4986870;28;19922;-67
2022/11/03 08:23:54;;;;;;;;;;;12.10;92.00;;;;;;4986633;28;19925;-68
2022/11/03 08:26:19;;;;;;;;;;;12.10;92.20;;;;;;4986780;28;20386;-67
2022/11/03 08:28:45;;;;;;;;;;;12.10;91.90;;;;;;4986467;28;19936;-67
2022/11/03 08:31:11;;;;;;;;;;;12.20;91.90;;;;;;4986502;28;19944;-67
2022/11/03 08:33:36;;;;;;;;;;;12.20;91.90;;;;;;4986436;28;19921;-67
2022/11/03 08:36:02;;;;;;;;;;;12.20;91.90;;;;;;4986245;28;19933;-67
2022/11/03 08:38:28;;;;;;;;;;;12.20;91.90;;;;;;4984758;28;19975;-67
2022/11/03 08:40:54;;;;;;;;;;;12.30;91.90;;;;;;4986002;28;20600;-67
2022/11/03 08:43:20;;;;;;;;;;;12.20;91.90;;;;;;4986260;28;19917;-67
2022/11/03 08:45:45;;;;;;;;;;;12.30;91.90;;;;;;4985817;28;19921;-67
2022/11/03 08:48:11;;;;;;;;;;;12.30;91.90;;;;;;4986358;28;20551;-68
2022/11/03 08:50:37;;;;;;;;;;;12.30;91.90;;;;;;4985888;28;19916;-67
2022/11/03 08:53:02;;;;;;;;;;;12.30;91.90;;;;;;4986343;28;19929;-67
2022/11/03 08:55:27;;;;;;;;;;;12.40;92.20;;;;;;5005118;28;19913;-67
2022/11/03 08:57:53;;;;;;;;;;;12.40;91.90;;;;;;4996435;28;19910;-67
2022/11/03 09:00:19;;;;;;;;;;;12.40;91.90;;;;;;4985807;28;19960;-66
2022/11/03 09:02:44;;;;;;;;;;;12.40;91.90;;;;;;4986289;28;19917;-67
2022/11/03 09:05:11;;;;;;;;;;;12.40;91.90;;;;;;4986434;28;19918;-67
2022/11/03 09:07:39;;;;;;;;;;;12.40;91.90;;;;;;4986062;28;19917;-67
2022/11/03 09:10:08;;;;;;;;;;;12.50;91.90;;;;;;4985547;28;19922;-67
2022/11/03 09:12:35;;;;;;;;;;;12.50;91.90;;;;;;4984195;28;20519;-67
2022/11/03 09:15:00;;;;;;;;;;;12.60;91.80;;;;;;4985890;28;20020;-67
2022/11/03 09:17:26;;;;;;;;;;;12.60;91.80;;;;;;4985788;28;20008;-67
2022/11/03 09:19:51;;;;;;;;;;;12.60;91.70;;;;;;4985474;28;19960;-67
2022/11/03 09:22:16;;;;;;;;;;;12.70;91.70;;;;;;4986005;28;20574;-67
2022/11/03 09:24:42;;;;;;;;;;;12.70;91.60;;;;;;4985805;28;19952;-67
2022/11/03 09:27:08;;;;;;;;;;;12.70;91.60;;;;;;4985898;28;19914;-67
2022/11/03 09:29:33;;;;;;;;;;;12.80;91.50;;;;;;4985530;28;19925;-67
2022/11/03 09:31:59;;;;;;;;;;;12.90;91.50;;;;;;4985578;28;20772;-67
2022/11/03 09:34:24;;;;;;;;;;;12.90;91.50;;;;;;4985903;28;19913;-67
2022/11/03 09:36:50;;;;;;;;;;;12.90;91.50;;;;;;4985680;28;19940;-69
2022/11/03 09:39:16;;;;;;;;;;;12.90;91.40;;;;;;4985374;28;20048;-67
2022/11/03 09:41:42;;;;;;;;;;;12.90;91.50;;;;;;4984881;28;20401;-68
2022/11/03 09:44:07;;;;;;;;;;;13.00;91.40;;;;;;4984980;28;19917;-69
2022/11/03 09:46:34;;;;;;;;;;;13.00;91.40;;;;;;4985173;28;19918;-67
2022/11/03 09:49:00;;;;;;;;;;;13.00;91.40;;;;;;4981001;28;19926;-67
2022/11/03 09:51:26;;;;;;;;;;;13.10;91.40;;;;;;4985229;28;19992;-67
2022/11/03 09:53:51;;;;;;;;;;;13.10;91.40;;;;;;4985583;28;19914;-67
2022/11/03 09:56:18;;;;;;;;;;;13.10;91.30;;;;;;4984086;28;19960;-67
2022/11/03 09:58:44;;;;;;;;;;;13.10;91.30;;;;;;4987723;28;20692;-67
2022/11/03 10:01:10;;;;;;;;;;;13.20;91.30;;;;;;4989291;28;20008;-67
2022/11/03 10:03:37;;;;;;;;;;;13.20;91.30;;;;;;4989339;28;19997;-67
2022/11/03 10:06:03;;;;;;;;;;;13.20;91.30;;;;;;4989537;28;19989;-67
2022/11/03 10:08:30;;;;;;;;;;;13.20;91.30;;;;;;4989116;28;20682;-66
2022/11/03 10:10:56;;;;;;;;;;;13.20;91.30;;;;;;4988029;28;19926;-67
2022/11/03 10:13:21;;;;;;;;;;;13.30;91.20;;;;;;4989113;28;19914;-67
2022/11/03 10:15:47;;;;;;;;;;;13.30;91.20;;;;;;4989280;28;19914;-67
2022/11/03 10:18:13;;;;;;;;;;;13.30;91.20;;;;;;4989062;28;20365;-67
2022/11/03 10:20:38;;;;;;;;;;;13.30;91.20;;;;;;4988222;28;19918;-67
2022/11/03 10:23:04;;;;;;;;;;;13.40;91.20;;;;;;4988674;28;19914;-67
2022/11/03 10:25:36;;;;;;;;;;;13.40;91.10;;;;;;4988567;28;20391;-67
2022/11/03 10:28:20;;;;;;;;;;;13.40;91.10;;;;;;4988591;28;19983;-67
2022/11/03 10:30:47;;;;;;;;;;;13.40;91.00;;;;;;4995058;28;19922;-67
2022/11/03 10:33:24;;;;;;;;;;;13.40;91.10;;;;;;4988726;28;19914;-67
2022/11/03 10:35:50;;;;;;;;;;;13.50;91.00;;;;;;4988591;28;20117;-67
2022/11/03 10:38:26;;;;;;;;;;;13.40;91.00;;;;;;4988661;28;20032;-66
2022/11/03 10:40:52;;;;;;;;;;;13.40;91.00;;;;;;4988568;28;19914;-66
2022/11/03 10:43:17;;;;;;;;;;;13.50;91.10;;;;;;4988618;28;20342;-67
2022/11/03 10:45:43;;;;;;;;;;;13.50;91.00;;;;;;4988402;28;19918;-67
2022/11/03 10:48:09;;;;;;;;;;;13.50;91.10;;;;;;4988665;28;19913;-66
2022/11/03 10:50:37;;;;;;;;;;;13.50;91.10;;;;;;4988146;28;20011;-66
2022/11/03 10:53:03;;;;;;;;;;;13.50;91.00;;;;;;4987911;28;19926;-67
2022/11/03 10:55:29;;;;;;;;;;;13.60;91.00;;;;;;4988253;28;20515;-66
2022/11/03 10:57:55;;;;;;;;;;;13.60;90.90;;;;;;4988275;28;19914;-66
2022/11/03 11:00:20;;;;;;;;;;;13.70;91.00;;;;;;4994420;28;19913;-66
2022/11/03 11:02:47;;;;;;;;;;;13.70;90.90;;;;;;5006031;28;19924;-66
2022/11/03 11:05:14;;;;;;;;;;;13.70;91.00;;;;;;5005150;28;19920;-66
2022/11/03 11:07:42;;;;;;;;;;;13.70;90.90;;;;;;4987677;28;19918;-67
2022/11/03 11:10:12;;;;;;;;;;;13.70;90.90;;;;;;4987139;28;19929;-67
2022/11/03 11:12:38;;;;;;;;;;;13.70;90.90;;;;;;4986175;28;19969;-66
2022/11/03 11:15:24;;;;;;;;;;;13.70;90.80;;;;;;4988013;28;19968;-67
2022/11/03 11:17:49;;;;;;;;;;;13.70;90.90;;;;;;4987564;28;19991;-67
2022/11/03 11:20:22;;;;;;;;;;;13.80;90.90;;;;;;4986113;28;19910;-67
2022/11/03 11:22:48;;;;;;;;;;;13.80;90.90;;;;;;4987425;28;19914;-66
2022/11/03 11:25:16;;;;;;;;;;;13.80;90.90;;;;;;5001158;28;19914;-66
2022/11/03 11:27:42;;;;;;;;;;;13.90;90.90;;;;;;4986056;28;19918;-66
2022/11/03 11:30:20;;;;;;;;;;;13.90;90.70;;;;;;4985851;28;20338;-67
2022/11/03 11:32:45;;;;;;;;;;;14.00;90.80;;;;;;5002744;28;20008;-67
2022/11/03 11:35:16;;;;;;;;;;;14.00;90.60;;;;;;4987761;28;20000;-66
2022/11/03 11:37:42;;;;;;;;;;;14.10;90.60;;;;;;4987699;28;19914;-67
2022/11/03 11:40:33;;;;;;;;;;;14.10;90.60;;;;;;4986984;28;20297;-67
2022/11/03 11:43:02;;;;;;;;;;;14.20;90.50;;;;;;4987334;28;19921;-67
2022/11/03 11:45:46;;;;;;;;;;;14.20;90.20;;;;;;4984552;28;19914;-67
2022/11/03 11:48:18;;;;;;;;;;;14.30;90.30;;;;;;4968073;28;19918;-67
2022/11/03 11:50:43;;;;;;;;;;;14.40;90.10;;;;;;4979400;28;19922;-67
2022/11/03 11:53:10;;;;;;;;;;;14.40;90.20;;;;;;4987171;28;19991;-67
2022/11/03 11:55:39;;;;;;;;;;;14.50;90.10;;;;;;4987275;28;20314;-67
2022/11/03 11:58:11;;;;;;;;;;;14.50;90.10;;;;;;4987006;28;19925;-67
2022/11/03 12:00:36;;;;;;;;;;;14.50;90.00;;;;;;4986706;28;19913;-67
2022/11/03 12:03:04;;;;;;;;;;;14.60;90.00;;;;;;4987037;28;20461;-66
2022/11/03 12:05:30;;;;;;;;;;;14.60;90.00;;;;;;4985347;28;20668;-67
2022/11/03 12:07:56;;;;;;;;;;;14.60;90.10;;;;;;4986992;28;19936;-67
2022/11/03 12:10:25;;;;;;;;;;;14.60;90.00;;;;;;4986700;28;19921;-67
2022/11/03 12:12:51;;;;;;;;;;;14.70;90.10;;;;;;4986793;28;20008;-67
2022/11/03 12:15:35;;;;;;;;;;;14.70;90.10;;;;;;4985766;28;19918;-68
2022/11/03 12:18:21;;;;;;;;;;;14.70;90.20;;;;;;4986600;28;19914;-67
2022/11/03 12:20:46;;;;;;;;;;;14.70;90.10;;;;;;4985716;28;19921;-67
2022/11/03 12:23:30;;;;;;;;;;;14.70;90.30;;;;;;4986747;28;19914;-67
2022/11/03 12:25:56;;;;;;;;;;;14.60;90.20;;;;;;4985848;28;19918;-67
2022/11/03 12:28:31;;;;;;;;;;;14.60;90.30;;;;;;4986846;28;20009;-67
2022/11/03 12:30:57;;;;;;;;;;;14.60;90.20;;;;;;4986276;28;19917;-67
2022/11/03 12:33:22;;;;;;;;;;;14.60;90.40;;;;;;4986561;28;19968;-67
2022/11/03 12:35:48;;;;;;;;;;;14.60;90.40;;;;;;4986399;28;19920;-67
2022/11/03 12:38:13;;;;;;;;;;;14.70;90.00;;;;;;4986794;28;20322;-67
2022/11/03 12:40:39;;;;;;;;;;;14.70;90.40;;;;;;4986292;28;20005;-68
2022/11/03 12:43:04;;;;;;;;;;;14.70;90.40;;;;;;4987406;28;20670;-67
2022/11/03 12:45:30;;;;;;;;;;;14.70;90.30;;;;;;4999749;28;20001;-67
2022/11/03 12:47:55;;;;;;;;;;;14.70;90.30;;;;;;4986095;28;20650;-67
2022/11/03 12:50:21;;;;;;;;;;;14.70;90.30;;;;;;4985803;28;19957;-68
2022/11/03 12:52:46;;;;;;;;;;;14.70;90.30;;;;;;4985969;28;20374;-67
2022/11/03 12:55:12;;;;;;;;;;;14.80;90.10;;;;;;4985817;28;19965;-67
2022/11/03 12:57:37;;;;;;;;;;;14.90;90.20;;;;;;4984483;28;19921;-67
2022/11/03 13:00:05;;;;;;;;;;;14.90;90.10;;;;;;4983879;28;20536;-68
2022/11/03 13:02:30;;;;;;;;;;;15.00;90.10;;;;;;4982755;28;19914;-71
2022/11/03 13:04:56;;;;;;;;;;;15.00;90.10;;;;;;4979072;28;19922;-67
2022/11/03 13:07:21;;;;;;;;;;;15.00;90.10;;;;;;4979270;28;19938;-67
2022/11/03 13:09:47;;;;;;;;;;;15.00;90.00;;;;;;4979613;28;19933;-67
2022/11/03 13:12:30;;;;;;;;;;;15.00;90.00;;;;;;4988834;28;20305;-67
2022/11/03 13:14:57;;;;;;;;;;;15.00;90.20;;;;;;4981078;28;20420;-67
2022/11/03 13:17:22;;;;;;;;;;;15.00;90.20;;;;;;4981415;28;19949;-67
2022/11/03 13:19:48;;;;;;;;;;;15.00;90.30;;;;;;4990026;28;20375;-67
2022/11/03 13:22:13;;;;;;;;;;;15.00;90.10;;;;;;4977803;28;19945;-67
2022/11/03 13:24:39;;;;;;;;;;;15.00;90.30;;;;;;4976478;28;19918;-67
2022/11/03 13:27:04;;;;;;;;;;;14.90;90.30;;;;;;4985390;28;20680;-68
2022/11/03 13:29:30;;;;;;;;;;;14.90;90.40;;;;;;4977697;28;20390;-67
2022/11/03 13:31:55;;;;;;;;;;;14.90;90.40;;;;;;4979457;28;19976;-67
2022/11/03 13:34:21;;;;;;;;;;;14.90;90.50;;;;;;4975649;28;19961;-67
2022/11/03 13:36:46;;;;;;;;;;;14.90;90.50;;;;;;4982459;28;19921;-68
2022/11/03 13:39:12;;;;;;;;;;;14.90;90.60;;;;;;4999257;28;19910;-67
2022/11/03 13:41:37;;;;;;;;;;;14.90;90.50;;;;;;4992972;28;19926;-67
2022/11/03 13:44:03;;;;;;;;;;;14.80;90.70;;;;;;4989292;28;20566;-67
2022/11/03 13:46:28;;;;;;;;;;;14.80;90.60;;;;;;4993939;28;20032;-68
2022/11/03 13:48:54;;;;;;;;;;;14.80;90.60;;;;;;4984691;28;19926;-67
2022/11/03 13:51:20;;;;;;;;;;;14.80;90.60;;;;;;5003415;28;19913;-67
2022/11/03 13:53:46;;;;;;;;;;;14.80;90.70;;;;;;5009131;28;19917;-67
2022/11/03 13:56:12;;;;;;;;;;;14.80;90.70;;;;;;5008410;28;19988;-67
2022/11/03 13:58:37;;;;;;;;;;;14.80;90.60;;;;;;4991173;28;20395;-68
2022/11/03 14:01:03;;;;;;;;;;;14.80;90.40;;;;;;4988948;28;19964;-68
2022/11/03 14:03:28;;;;;;;;;;;14.80;90.60;;;;;;4988527;28;20821;-67
2022/11/03 14:05:54;;;;;;;;;;;14.80;90.70;;;;;;4989486;28;20008;-67
2022/11/03 14:08:19;;;;;;;;;;;14.80;90.80;;;;;;5003986;28;20350;-67
2022/11/03 14:10:45;;;;;;;;;;;14.70;90.70;;;;;;4989081;28;19921;-67
2022/11/03 14:13:10;;;;;;;;;;;14.70;90.80;;;;;;4989087;28;20399;-67
2022/11/03 14:15:36;;;;;;;;;;;14.70;90.80;;;;;;4988346;28;19925;-67
2022/11/03 14:18:01;;;;;;;;;;;14.70;90.70;;;;;;4989206;28;19914;-67
2022/11/03 14:20:27;;;;;;;;;;;14.70;90.70;;;;;;4987353;28;19914;-67
2022/11/03 14:22:52;;;;;;;;;;;14.70;90.80;;;;;;4987314;28;19924;-67
2022/11/03 14:25:19;;;;;;;;;;;14.70;90.80;;;;;;4988939;28;20359;-67
2022/11/03 14:27:45;;;;;;;;;;;14.70;90.80;;;;;;4988785;28;19913;-66
2022/11/03 14:30:11;;;;;;;;;;;14.70;90.80;;;;;;4988337;28;19929;-67
2022/11/03 14:32:36;;;;;;;;;;;14.70;90.90;;;;;;4988230;28;19922;-67
2022/11/03 14:35:02;;;;;;;;;;;14.60;90.90;;;;;;4987716;28;20645;-67
2022/11/03 14:37:27;;;;;;;;;;;14.60;90.90;;;;;;4984028;28;20365;-67